sensor_id;sensor_type;location;lat;lon;timestamp;P1;durP1;ratioP1;P2;durP2;ratioP2
58214;SDS011;44011;52.218;1.480;2023-08-17T00:01:20;8.60;;;2.33;;
58214;SDS011;44011;52.218;1.480;2023-08-17T00:03:45;5.73;;;2.17;;
58214;SDS011;44011;52.218;1.480;2023-08-17T00:06:10;5.27;;;2.20;;
58214;SDS011;44011;52.218;1.480;2023-08-17T00:08:35;8.45;;;2.40;;
58214;SDS011;44011;52.218;1.480;2023-08-17T00:11:00;4.97;;;2.30;;
58214;SDS011;44011;52.218;1.480;2023-08-17T00:13:26;4.67;;;2.13;;
58214;SDS011;44011;52.218;1.480;2023-08-17T00:15:51;8.17;;;2.23;;
58214;SDS011;44011;52.218;1.480;2023-08-17T00:18:16;5.50;;;2.10;;
58214;SDS011;44011;52.218;1.480;2023-08-17T00:20:41;9.77;;;2.53;;
58214;SDS011;44011;52.218;1.480;2023-08-17T00:23:06;7.73;;;2.70;;
58214;SDS011;44011;52.218;1.480;2023-08-17T00:25:32;7.27;;;2.67;;
58214;SDS011;44011;52.218;1.480;2023-08-17T00:27:57;13.27;;;3.07;;
58214;SDS011;44011;52.218;1.480;2023-08-17T00:30:22;4.90;;;2.10;;
58214;SDS011;44011;52.218;1.480;2023-08-17T00:32:47;4.87;;;2.47;;
58214;SDS011;44011;52.218;1.480;2023-08-17T00:35:12;7.03;;;2.43;;
58214;SDS011;44011;52.218;1.480;2023-08-17T00:37:38;5.50;;;2.50;;
58214;SDS011;44011;52.218;1.480;2023-08-17T00:40:03;9.63;;;3.00;;
58214;SDS011;44011;52.218;1.480;2023-08-17T00:42:29;6.63;;;2.38;;
58214;SDS011;44011;52.218;1.480;2023-08-17T00:44:54;5.03;;;2.63;;
58214;SDS011;44011;52.218;1.480;2023-08-17T00:47:19;5.13;;;2.30;;
58214;SDS011;44011;52.218;1.480;2023-08-17T00:49:44;7.37;;;2.70;;
58214;SDS011;44011;52.218;1.480;2023-08-17T00:52:10;8.48;;;2.58;;
58214;SDS011;44011;52.218;1.480;2023-08-17T00:54:35;7.87;;;3.13;;
58214;SDS011;44011;52.218;1.480;2023-08-17T00:57:01;10.48;;;2.58;;
58214;SDS011;44011;52.218;1.480;2023-08-17T00:59:26;10.73;;;2.60;;
58214;SDS011;44011;52.218;1.480;2023-08-17T01:01:52;9.23;;;2.38;;
58214;SDS011;44011;52.218;1.480;2023-08-17T01:04:17;10.60;;;3.17;;
58214;SDS011;44011;52.218;1.480;2023-08-17T01:06:42;9.33;;;2.80;;
58214;SDS011;44011;52.218;1.480;2023-08-17T01:09:07;6.78;;;2.65;;
58214;SDS011;44011;52.218;1.480;2023-08-17T01:11:37;7.90;;;2.80;;
58214;SDS011;44011;52.218;1.480;2023-08-17T01:14:05;8.95;;;2.75;;
58214;SDS011;44011;52.218;1.480;2023-08-17T01:16:33;5.45;;;2.95;;
58214;SDS011;44011;52.218;1.480;2023-08-17T01:19:00;12.38;;;3.08;;
58214;SDS011;44011;52.218;1.480;2023-08-17T01:21:28;8.25;;;2.67;;
58214;SDS011;44011;52.218;1.480;2023-08-17T01:23:57;10.88;;;2.78;;
58214;SDS011;44011;52.218;1.480;2023-08-17T01:26:23;5.53;;;2.42;;
58214;SDS011;44011;52.218;1.480;2023-08-17T01:28:48;7.50;;;3.10;;
58214;SDS011;44011;52.218;1.480;2023-08-17T01:31:19;8.20;;;3.20;;
58214;SDS011;44011;52.218;1.480;2023-08-17T01:33:54;8.68;;;2.75;;
58214;SDS011;44011;52.218;1.480;2023-08-17T01:38:46;12.67;;;4.67;;
58214;SDS011;44011;52.218;1.480;2023-08-17T01:41:13;13.05;;;3.08;;
58214;SDS011;44011;52.218;1.480;2023-08-17T01:43:43;9.10;;;2.90;;
58214;SDS011;44011;52.218;1.480;2023-08-17T01:46:12;9.55;;;2.70;;
58214;SDS011;44011;52.218;1.480;2023-08-17T01:48:38;9.15;;;2.72;;
58214;SDS011;44011;52.218;1.480;2023-08-17T01:51:03;10.27;;;2.73;;
58214;SDS011;44011;52.218;1.480;2023-08-17T01:53:28;10.63;;;3.13;;
58214;SDS011;44011;52.218;1.480;2023-08-17T01:55:53;8.27;;;2.77;;
58214;SDS011;44011;52.218;1.480;2023-08-17T01:58:18;10.40;;;3.37;;
58214;SDS011;44011;52.218;1.480;2023-08-17T02:00:44;7.93;;;2.57;;
58214;SDS011;44011;52.218;1.480;2023-08-17T02:03:09;10.13;;;2.93;;
58214;SDS011;44011;52.218;1.480;2023-08-17T02:05:34;7.23;;;2.67;;
58214;SDS011;44011;52.218;1.480;2023-08-17T02:07:59;7.50;;;2.50;;
58214;SDS011;44011;52.218;1.480;2023-08-17T02:10:24;9.70;;;3.03;;
58214;SDS011;44011;52.218;1.480;2023-08-17T02:12:50;10.50;;;3.00;;
58214;SDS011;44011;52.218;1.480;2023-08-17T02:15:15;8.88;;;2.95;;
58214;SDS011;44011;52.218;1.480;2023-08-17T02:17:41;7.40;;;3.78;;
58214;SDS011;44011;52.218;1.480;2023-08-17T02:20:06;10.77;;;2.70;;
58214;SDS011;44011;52.218;1.480;2023-08-17T02:22:31;10.68;;;3.00;;
58214;SDS011;44011;52.218;1.480;2023-08-17T02:24:57;10.70;;;3.00;;
58214;SDS011;44011;52.218;1.480;2023-08-17T02:27:22;6.73;;;2.83;;
58214;SDS011;44011;52.218;1.480;2023-08-17T02:29:47;10.27;;;2.60;;
58214;SDS011;44011;52.218;1.480;2023-08-17T02:32:12;8.23;;;3.63;;
58214;SDS011;44011;52.218;1.480;2023-08-17T02:34:37;10.65;;;4.00;;
58214;SDS011;44011;52.218;1.480;2023-08-17T02:37:03;7.32;;;3.03;;
58214;SDS011;44011;52.218;1.480;2023-08-17T02:39:28;7.70;;;3.53;;
58214;SDS011;44011;52.218;1.480;2023-08-17T02:41:53;9.33;;;2.93;;
58214;SDS011;44011;52.218;1.480;2023-08-17T02:44:18;7.50;;;3.05;;
58214;SDS011;44011;52.218;1.480;2023-08-17T02:46:43;7.93;;;2.83;;
58214;SDS011;44011;52.218;1.480;2023-08-17T02:49:09;6.63;;;2.70;;
58214;SDS011;44011;52.218;1.480;2023-08-17T02:51:34;10.20;;;3.33;;
58214;SDS011;44011;52.218;1.480;2023-08-17T02:53:59;6.87;;;3.03;;
58214;SDS011;44011;52.218;1.480;2023-08-17T02:56:24;10.90;;;2.78;;
58214;SDS011;44011;52.218;1.480;2023-08-17T02:58:49;8.57;;;3.08;;
58214;SDS011;44011;52.218;1.480;2023-08-17T03:01:15;9.93;;;2.90;;
58214;SDS011;44011;52.218;1.480;2023-08-17T03:03:40;9.80;;;3.13;;
58214;SDS011;44011;52.218;1.480;2023-08-17T03:06:05;7.53;;;2.63;;
58214;SDS011;44011;52.218;1.480;2023-08-17T03:08:31;10.25;;;3.80;;
58214;SDS011;44011;52.218;1.480;2023-08-17T03:10:56;10.10;;;3.37;;
58214;SDS011;44011;52.218;1.480;2023-08-17T03:13:21;8.15;;;3.20;;
58214;SDS011;44011;52.218;1.480;2023-08-17T03:15:46;6.88;;;3.05;;
58214;SDS011;44011;52.218;1.480;2023-08-17T03:18:11;8.53;;;3.17;;
58214;SDS011;44011;52.218;1.480;2023-08-17T03:20:37;8.00;;;3.20;;
58214;SDS011;44011;52.218;1.480;2023-08-17T03:23:02;13.95;;;3.50;;
58214;SDS011;44011;52.218;1.480;2023-08-17T03:25:31;12.43;;;3.17;;
58214;SDS011;44011;52.218;1.480;2023-08-17T03:27:56;9.30;;;3.00;;
58214;SDS011;44011;52.218;1.480;2023-08-17T03:30:21;11.37;;;3.07;;
58214;SDS011;44011;52.218;1.480;2023-08-17T03:32:46;8.57;;;3.27;;
58214;SDS011;44011;52.218;1.480;2023-08-17T03:35:11;7.53;;;2.92;;
58214;SDS011;44011;52.218;1.480;2023-08-17T03:37:38;11.45;;;3.20;;
58214;SDS011;44011;52.218;1.480;2023-08-17T03:40:03;9.32;;;2.85;;
58214;SDS011;44011;52.218;1.480;2023-08-17T03:42:28;10.43;;;3.08;;
58214;SDS011;44011;52.218;1.480;2023-08-17T03:44:54;8.20;;;3.30;;
58214;SDS011;44011;52.218;1.480;2023-08-17T03:47:19;7.43;;;3.20;;
58214;SDS011;44011;52.218;1.480;2023-08-17T03:49:44;7.70;;;3.63;;
58214;SDS011;44011;52.218;1.480;2023-08-17T03:52:10;10.77;;;3.28;;
58214;SDS011;44011;52.218;1.480;2023-08-17T03:54:35;9.40;;;3.50;;
58214;SDS011;44011;52.218;1.480;2023-08-17T03:57:00;8.05;;;3.08;;
58214;SDS011;44011;52.218;1.480;2023-08-17T03:59:26;10.57;;;3.40;;
58214;SDS011;44011;52.218;1.480;2023-08-17T04:01:51;5.85;;;3.10;;
58214;SDS011;44011;52.218;1.480;2023-08-17T04:04:16;5.88;;;2.80;;
58214;SDS011;44011;52.218;1.480;2023-08-17T04:06:42;9.57;;;2.67;;
58214;SDS011;44011;52.218;1.480;2023-08-17T04:09:07;8.43;;;2.78;;
58214;SDS011;44011;52.218;1.480;2023-08-17T04:11:34;9.57;;;3.00;;
58214;SDS011;44011;52.218;1.480;2023-08-17T04:14:00;8.60;;;3.55;;
58214;SDS011;44011;52.218;1.480;2023-08-17T04:16:25;9.77;;;3.23;;
58214;SDS011;44011;52.218;1.480;2023-08-17T04:18:50;9.33;;;3.33;;
58214;SDS011;44011;52.218;1.480;2023-08-17T04:21:15;10.70;;;2.87;;
58214;SDS011;44011;52.218;1.480;2023-08-17T04:23:40;9.45;;;2.80;;
58214;SDS011;44011;52.218;1.480;2023-08-17T04:26:05;11.27;;;2.60;;
58214;SDS011;44011;52.218;1.480;2023-08-17T04:28:31;7.88;;;2.58;;
58214;SDS011;44011;52.218;1.480;2023-08-17T04:30:56;6.00;;;2.78;;
58214;SDS011;44011;52.218;1.480;2023-08-17T04:33:21;7.97;;;2.90;;
58214;SDS011;44011;52.218;1.480;2023-08-17T04:35:47;6.03;;;2.57;;
58214;SDS011;44011;52.218;1.480;2023-08-17T04:38:13;6.80;;;3.22;;
58214;SDS011;44011;52.218;1.480;2023-08-17T04:40:38;8.10;;;3.08;;
58214;SDS011;44011;52.218;1.480;2023-08-17T04:43:03;5.85;;;2.50;;
58214;SDS011;44011;52.218;1.480;2023-08-17T04:45:28;6.07;;;2.53;;
58214;SDS011;44011;52.218;1.480;2023-08-17T04:47:54;10.10;;;2.75;;
58214;SDS011;44011;52.218;1.480;2023-08-17T04:50:19;5.10;;;2.75;;
58214;SDS011;44011;52.218;1.480;2023-08-17T04:52:44;3.25;;;2.33;;
58214;SDS011;44011;52.218;1.480;2023-08-17T04:55:10;9.55;;;2.38;;
58214;SDS011;44011;52.218;1.480;2023-08-17T04:57:35;7.88;;;2.58;;
58214;SDS011;44011;52.218;1.480;2023-08-17T05:00:00;5.75;;;2.65;;
58214;SDS011;44011;52.218;1.480;2023-08-17T05:02:25;7.63;;;2.80;;
58214;SDS011;44011;52.218;1.480;2023-08-17T05:04:51;8.80;;;3.03;;
58214;SDS011;44011;52.218;1.480;2023-08-17T05:07:16;6.67;;;2.40;;
58214;SDS011;44011;52.218;1.480;2023-08-17T05:09:41;5.40;;;2.13;;
58214;SDS011;44011;52.218;1.480;2023-08-17T05:12:06;7.33;;;2.40;;
58214;SDS011;44011;52.218;1.480;2023-08-17T05:14:32;8.93;;;2.72;;
58214;SDS011;44011;52.218;1.480;2023-08-17T05:16:57;4.83;;;2.83;;
58214;SDS011;44011;52.218;1.480;2023-08-17T05:19:22;6.30;;;2.58;;
58214;SDS011;44011;52.218;1.480;2023-08-17T05:21:48;4.25;;;2.22;;
58214;SDS011;44011;52.218;1.480;2023-08-17T05:24:15;4.68;;;2.22;;
58214;SDS011;44011;52.218;1.480;2023-08-17T05:26:40;6.05;;;2.75;;
58214;SDS011;44011;52.218;1.480;2023-08-17T05:29:06;8.70;;;2.42;;
58214;SDS011;44011;52.218;1.480;2023-08-17T05:31:31;7.90;;;2.70;;
58214;SDS011;44011;52.218;1.480;2023-08-17T05:33:56;7.80;;;3.10;;
58214;SDS011;44011;52.218;1.480;2023-08-17T05:36:21;9.70;;;3.17;;
58214;SDS011;44011;52.218;1.480;2023-08-17T05:38:46;7.90;;;2.70;;
58214;SDS011;44011;52.218;1.480;2023-08-17T05:41:11;6.93;;;2.40;;
58214;SDS011;44011;52.218;1.480;2023-08-17T05:43:37;5.17;;;2.60;;
58214;SDS011;44011;52.218;1.480;2023-08-17T05:46:02;5.53;;;2.45;;
58214;SDS011;44011;52.218;1.480;2023-08-17T05:48:28;7.18;;;3.00;;
58214;SDS011;44011;52.218;1.480;2023-08-17T05:50:54;4.57;;;2.30;;
58214;SDS011;44011;52.218;1.480;2023-08-17T05:53:20;11.15;;;2.90;;
58214;SDS011;44011;52.218;1.480;2023-08-17T05:55:45;6.15;;;2.63;;
58214;SDS011;44011;52.218;1.480;2023-08-17T05:58:10;8.27;;;2.57;;
58214;SDS011;44011;52.218;1.480;2023-08-17T06:00:35;6.10;;;2.30;;
58214;SDS011;44011;52.218;1.480;2023-08-17T06:03:00;5.13;;;2.60;;
58214;SDS011;44011;52.218;1.480;2023-08-17T06:05:29;3.88;;;2.40;;
58214;SDS011;44011;52.218;1.480;2023-08-17T06:07:55;6.05;;;2.80;;
58214;SDS011;44011;52.218;1.480;2023-08-17T06:10:21;5.38;;;2.30;;
58214;SDS011;44011;52.218;1.480;2023-08-17T06:12:50;8.77;;;2.55;;
58214;SDS011;44011;52.218;1.480;2023-08-17T06:15:15;8.82;;;3.03;;
58214;SDS011;44011;52.218;1.480;2023-08-17T06:17:40;6.22;;;3.33;;
58214;SDS011;44011;52.218;1.480;2023-08-17T06:20:05;4.03;;;2.47;;
58214;SDS011;44011;52.218;1.480;2023-08-17T06:22:34;4.25;;;2.15;;
58214;SDS011;44011;52.218;1.480;2023-08-17T06:24:59;5.53;;;2.40;;
58214;SDS011;44011;52.218;1.480;2023-08-17T06:27:25;5.10;;;2.15;;
58214;SDS011;44011;52.218;1.480;2023-08-17T06:29:50;4.83;;;2.30;;
58214;SDS011;44011;52.218;1.480;2023-08-17T06:32:16;3.90;;;2.30;;
58214;SDS011;44011;52.218;1.480;2023-08-17T06:34:41;3.60;;;2.20;;
58214;SDS011;44011;52.218;1.480;2023-08-17T06:37:06;4.50;;;2.08;;
58214;SDS011;44011;52.218;1.480;2023-08-17T06:39:32;6.30;;;2.20;;
58214;SDS011;44011;52.218;1.480;2023-08-17T06:41:57;4.78;;;2.35;;
58214;SDS011;44011;52.218;1.480;2023-08-17T06:44:22;6.03;;;2.28;;
58214;SDS011;44011;52.218;1.480;2023-08-17T06:46:48;3.65;;;1.75;;
58214;SDS011;44011;52.218;1.480;2023-08-17T06:49:13;3.83;;;2.47;;
58214;SDS011;44011;52.218;1.480;2023-08-17T06:51:38;5.40;;;2.25;;
58214;SDS011;44011;52.218;1.480;2023-08-17T06:54:04;4.50;;;2.13;;
58214;SDS011;44011;52.218;1.480;2023-08-17T06:56:29;7.70;;;2.55;;
58214;SDS011;44011;52.218;1.480;2023-08-17T06:58:54;6.75;;;3.30;;
58214;SDS011;44011;52.218;1.480;2023-08-17T07:01:20;8.57;;;2.37;;
58214;SDS011;44011;52.218;1.480;2023-08-17T07:03:45;4.18;;;1.83;;
58214;SDS011;44011;52.218;1.480;2023-08-17T07:06:10;6.40;;;2.10;;
58214;SDS011;44011;52.218;1.480;2023-08-17T07:08:35;6.80;;;2.20;;
58214;SDS011;44011;52.218;1.480;2023-08-17T07:11:01;6.68;;;2.08;;
58214;SDS011;44011;52.218;1.480;2023-08-17T07:13:26;4.68;;;2.40;;
58214;SDS011;44011;52.218;1.480;2023-08-17T07:15:51;4.88;;;2.30;;
58214;SDS011;44011;52.218;1.480;2023-08-17T07:18:16;5.40;;;2.30;;
58214;SDS011;44011;52.218;1.480;2023-08-17T07:20:42;6.70;;;2.33;;
58214;SDS011;44011;52.218;1.480;2023-08-17T07:23:07;3.05;;;2.38;;
58214;SDS011;44011;52.218;1.480;2023-08-17T07:25:32;5.80;;;2.77;;
58214;SDS011;44011;52.218;1.480;2023-08-17T07:27:58;4.45;;;1.85;;
58214;SDS011;44011;52.218;1.480;2023-08-17T07:30:23;6.17;;;2.50;;
58214;SDS011;44011;52.218;1.480;2023-08-17T07:32:48;5.68;;;2.63;;
58214;SDS011;44011;52.218;1.480;2023-08-17T07:35:13;4.30;;;2.47;;
58214;SDS011;44011;52.218;1.480;2023-08-17T07:37:38;7.53;;;2.57;;
58214;SDS011;44011;52.218;1.480;2023-08-17T07:40:04;5.63;;;2.37;;
58214;SDS011;44011;52.218;1.480;2023-08-17T07:42:29;3.72;;;2.20;;
58214;SDS011;44011;52.218;1.480;2023-08-17T07:44:55;5.07;;;1.90;;
58214;SDS011;44011;52.218;1.480;2023-08-17T07:47:20;7.45;;;2.25;;
58214;SDS011;44011;52.218;1.480;2023-08-17T07:49:45;6.33;;;2.03;;
58214;SDS011;44011;52.218;1.480;2023-08-17T07:52:11;3.90;;;2.08;;
58214;SDS011;44011;52.218;1.480;2023-08-17T07:54:37;6.00;;;2.20;;
58214;SDS011;44011;52.218;1.480;2023-08-17T07:57:02;5.40;;;2.17;;
58214;SDS011;44011;52.218;1.480;2023-08-17T07:59:28;3.63;;;2.00;;
58214;SDS011;44011;52.218;1.480;2023-08-17T08:01:53;5.13;;;2.13;;
58214;SDS011;44011;52.218;1.480;2023-08-17T08:04:18;4.03;;;1.90;;
58214;SDS011;44011;52.218;1.480;2023-08-17T08:06:44;6.80;;;2.67;;
58214;SDS011;44011;52.218;1.480;2023-08-17T08:09:09;3.60;;;2.10;;
58214;SDS011;44011;52.218;1.480;2023-08-17T08:11:34;4.80;;;1.80;;
58214;SDS011;44011;52.218;1.480;2023-08-17T08:13:59;8.65;;;2.58;;
58214;SDS011;44011;52.218;1.480;2023-08-17T08:16:26;4.63;;;2.00;;
58214;SDS011;44011;52.218;1.480;2023-08-17T08:18:51;4.40;;;1.77;;
58214;SDS011;44011;52.218;1.480;2023-08-17T08:21:16;2.20;;;1.67;;
58214;SDS011;44011;52.218;1.480;2023-08-17T08:23:41;3.60;;;1.83;;
58214;SDS011;44011;52.218;1.480;2023-08-17T08:26:07;4.97;;;1.73;;
58214;SDS011;44011;52.218;1.480;2023-08-17T08:28:32;5.50;;;2.37;;
58214;SDS011;44011;52.218;1.480;2023-08-17T08:31:01;7.00;;;3.07;;
58214;SDS011;44011;52.218;1.480;2023-08-17T08:33:26;6.50;;;2.80;;
58214;SDS011;44011;52.218;1.480;2023-08-17T08:35:51;5.37;;;2.13;;
58214;SDS011;44011;52.218;1.480;2023-08-17T08:38:17;4.82;;;2.15;;
58214;SDS011;44011;52.218;1.480;2023-08-17T08:40:42;5.20;;;2.00;;
58214;SDS011;44011;52.218;1.480;2023-08-17T08:43:09;5.10;;;1.75;;
58214;SDS011;44011;52.218;1.480;2023-08-17T08:45:35;5.85;;;2.20;;
58214;SDS011;44011;52.218;1.480;2023-08-17T08:48:00;4.70;;;1.90;;
58214;SDS011;44011;52.218;1.480;2023-08-17T08:50:26;3.65;;;1.83;;
58214;SDS011;44011;52.218;1.480;2023-08-17T08:52:59;3.22;;;2.03;;
58214;SDS011;44011;52.218;1.480;2023-08-17T08:55:26;3.08;;;2.08;;
58214;SDS011;44011;52.218;1.480;2023-08-17T08:57:53;4.82;;;1.95;;
58214;SDS011;44011;52.218;1.480;2023-08-17T09:00:18;5.03;;;1.98;;
58214;SDS011;44011;52.218;1.480;2023-08-17T09:02:44;5.75;;;2.05;;
58214;SDS011;44011;52.218;1.480;2023-08-17T09:05:10;7.13;;;2.30;;
58214;SDS011;44011;52.218;1.480;2023-08-17T09:07:35;7.05;;;2.10;;
58214;SDS011;44011;52.218;1.480;2023-08-17T09:10:02;3.90;;;1.90;;
58214;SDS011;44011;52.218;1.480;2023-08-17T09:12:28;4.70;;;1.90;;
58214;SDS011;44011;52.218;1.480;2023-08-17T09:14:54;4.90;;;1.83;;
58214;SDS011;44011;52.218;1.480;2023-08-17T09:17:23;4.80;;;1.98;;
58214;SDS011;44011;52.218;1.480;2023-08-17T09:19:48;8.13;;;2.08;;
58214;SDS011;44011;52.218;1.480;2023-08-17T09:22:13;2.17;;;1.57;;
58214;SDS011;44011;52.218;1.480;2023-08-17T09:24:44;4.10;;;1.73;;
58214;SDS011;44011;52.218;1.480;2023-08-17T09:27:09;6.83;;;2.07;;
58214;SDS011;44011;52.218;1.480;2023-08-17T09:29:36;3.35;;;1.80;;
58214;SDS011;44011;52.218;1.480;2023-08-17T09:32:06;3.08;;;1.60;;
58214;SDS011;44011;52.218;1.480;2023-08-17T09:34:32;3.45;;;2.08;;
58214;SDS011;44011;52.218;1.480;2023-08-17T09:37:01;7.70;;;2.20;;
58214;SDS011;44011;52.218;1.480;2023-08-17T09:39:27;3.20;;;1.70;;
58214;SDS011;44011;52.218;1.480;2023-08-17T09:41:53;5.93;;;2.00;;
58214;SDS011;44011;52.218;1.480;2023-08-17T09:44:19;4.82;;;1.88;;
58214;SDS011;44011;52.218;1.480;2023-08-17T09:46:45;3.92;;;1.90;;
58214;SDS011;44011;52.218;1.480;2023-08-17T09:49:11;2.92;;;1.85;;
58214;SDS011;44011;52.218;1.480;2023-08-17T09:51:36;5.68;;;2.00;;
58214;SDS011;44011;52.218;1.480;2023-08-17T09:54:01;10.80;;;2.23;;
58214;SDS011;44011;52.218;1.480;2023-08-17T09:56:26;4.72;;;2.20;;
58214;SDS011;44011;52.218;1.480;2023-08-17T09:58:52;5.50;;;2.08;;
58214;SDS011;44011;52.218;1.480;2023-08-17T10:01:18;3.28;;;1.90;;
58214;SDS011;44011;52.218;1.480;2023-08-17T10:03:44;4.25;;;1.80;;
58214;SDS011;44011;52.218;1.480;2023-08-17T10:06:15;4.03;;;1.80;;
58214;SDS011;44011;52.218;1.480;2023-08-17T10:08:43;6.05;;;1.85;;
58214;SDS011;44011;52.218;1.480;2023-08-17T10:11:08;4.40;;;1.92;;
58214;SDS011;44011;52.218;1.480;2023-08-17T10:13:39;3.05;;;1.67;;
58214;SDS011;44011;52.218;1.480;2023-08-17T10:16:19;3.90;;;1.55;;
58214;SDS011;44011;52.218;1.480;2023-08-17T10:21:23;4.80;;;1.70;;
58214;SDS011;44011;52.218;1.480;2023-08-17T10:23:49;3.40;;;1.55;;
58214;SDS011;44011;52.218;1.480;2023-08-17T10:26:14;5.22;;;1.70;;
58214;SDS011;44011;52.218;1.480;2023-08-17T10:28:40;3.33;;;1.70;;
58214;SDS011;44011;52.218;1.480;2023-08-17T10:31:06;7.18;;;2.17;;
58214;SDS011;44011;52.218;1.480;2023-08-17T10:33:32;5.65;;;1.50;;
58214;SDS011;44011;52.218;1.480;2023-08-17T10:35:57;4.72;;;2.25;;
58214;SDS011;44011;52.218;1.480;2023-08-17T10:38:23;4.32;;;2.08;;
58214;SDS011;44011;52.218;1.480;2023-08-17T10:41:07;3.35;;;1.77;;
58214;SDS011;44011;52.218;1.480;2023-08-17T10:43:32;4.00;;;1.50;;
58214;SDS011;44011;52.218;1.480;2023-08-17T10:45:58;2.95;;;1.70;;
58214;SDS011;44011;52.218;1.480;2023-08-17T10:48:39;3.40;;;2.10;;
58214;SDS011;44011;52.218;1.480;2023-08-17T10:51:08;4.07;;;1.77;;
58214;SDS011;44011;52.218;1.480;2023-08-17T10:53:37;3.83;;;1.80;;
58214;SDS011;44011;52.218;1.480;2023-08-17T10:56:07;4.65;;;1.70;;
58214;SDS011;44011;52.218;1.480;2023-08-17T10:58:35;4.15;;;1.48;;
58214;SDS011;44011;52.218;1.480;2023-08-17T11:01:00;3.60;;;1.50;;
58214;SDS011;44011;52.218;1.480;2023-08-17T11:03:26;4.07;;;1.60;;
58214;SDS011;44011;52.218;1.480;2023-08-17T11:05:53;5.18;;;1.90;;
58214;SDS011;44011;52.218;1.480;2023-08-17T11:08:31;5.28;;;2.38;;
58214;SDS011;44011;52.218;1.480;2023-08-17T11:11:03;5.85;;;1.58;;
58214;SDS011;44011;52.218;1.480;2023-08-17T11:13:32;4.75;;;1.70;;
58214;SDS011;44011;52.218;1.480;2023-08-17T11:15:58;4.22;;;1.63;;
58214;SDS011;44011;52.218;1.480;2023-08-17T11:18:24;4.80;;;1.80;;
58214;SDS011;44011;52.218;1.480;2023-08-17T11:20:49;3.83;;;1.48;;
58214;SDS011;44011;52.218;1.480;2023-08-17T11:23:14;3.78;;;1.50;;
58214;SDS011;44011;52.218;1.480;2023-08-17T11:25:40;2.67;;;1.60;;
58214;SDS011;44011;52.218;1.480;2023-08-17T11:28:06;3.92;;;1.55;;
58214;SDS011;44011;52.218;1.480;2023-08-17T11:30:32;5.60;;;1.92;;
58214;SDS011;44011;52.218;1.480;2023-08-17T11:32:59;4.45;;;1.38;;
58214;SDS011;44011;52.218;1.480;2023-08-17T11:35:24;4.05;;;1.50;;
58214;SDS011;44011;52.218;1.480;2023-08-17T11:37:49;3.28;;;1.58;;
58214;SDS011;44011;52.218;1.480;2023-08-17T11:40:15;4.57;;;1.90;;
58214;SDS011;44011;52.218;1.480;2023-08-17T11:42:40;4.22;;;1.80;;
58214;SDS011;44011;52.218;1.480;2023-08-17T11:45:06;5.85;;;1.58;;
58214;SDS011;44011;52.218;1.480;2023-08-17T11:47:35;5.38;;;1.63;;
58214;SDS011;44011;52.218;1.480;2023-08-17T11:50:01;5.82;;;1.83;;
58214;SDS011;44011;52.218;1.480;2023-08-17T11:52:27;6.60;;;2.03;;
58214;SDS011;44011;52.218;1.480;2023-08-17T11:54:56;4.78;;;1.70;;
58214;SDS011;44011;52.218;1.480;2023-08-17T11:57:21;3.55;;;1.63;;
58214;SDS011;44011;52.218;1.480;2023-08-17T11:59:46;3.58;;;1.60;;
58214;SDS011;44011;52.218;1.480;2023-08-17T12:02:12;4.30;;;1.50;;
58214;SDS011;44011;52.218;1.480;2023-08-17T12:04:37;5.03;;;1.50;;
58214;SDS011;44011;52.218;1.480;2023-08-17T12:07:02;3.92;;;1.20;;
58214;SDS011;44011;52.218;1.480;2023-08-17T12:09:27;3.42;;;1.17;;
58214;SDS011;44011;52.218;1.480;2023-08-17T12:11:59;2.80;;;1.20;;
58214;SDS011;44011;52.218;1.480;2023-08-17T12:14:25;4.35;;;1.60;;
58214;SDS011;44011;52.218;1.480;2023-08-17T12:16:51;3.28;;;1.58;;
58214;SDS011;44011;52.218;1.480;2023-08-17T12:19:16;5.63;;;1.20;;
58214;SDS011;44011;52.218;1.480;2023-08-17T12:21:41;3.38;;;1.17;;
58214;SDS011;44011;52.218;1.480;2023-08-17T12:24:08;5.80;;;1.35;;
58214;SDS011;44011;52.218;1.480;2023-08-17T12:26:33;2.70;;;1.35;;
58214;SDS011;44011;52.218;1.480;2023-08-17T12:29:00;4.00;;;1.55;;
58214;SDS011;44011;52.218;1.480;2023-08-17T12:31:25;4.57;;;1.33;;
58214;SDS011;44011;52.218;1.480;2023-08-17T12:33:51;5.75;;;1.63;;
58214;SDS011;44011;52.218;1.480;2023-08-17T12:36:16;1.83;;;1.27;;
58214;SDS011;44011;52.218;1.480;2023-08-17T12:38:42;3.05;;;1.40;;
58214;SDS011;44011;52.218;1.480;2023-08-17T12:41:10;2.97;;;1.40;;
58214;SDS011;44011;52.218;1.480;2023-08-17T12:43:35;4.80;;;1.10;;
58214;SDS011;44011;52.218;1.480;2023-08-17T12:46:00;3.43;;;1.33;;
58214;SDS011;44011;52.218;1.480;2023-08-17T12:48:25;3.47;;;0.90;;
58214;SDS011;44011;52.218;1.480;2023-08-17T12:50:50;2.03;;;1.00;;
58214;SDS011;44011;52.218;1.480;2023-08-17T12:53:16;4.43;;;1.00;;
58214;SDS011;44011;52.218;1.480;2023-08-17T12:55:41;4.90;;;1.20;;
58214;SDS011;44011;52.218;1.480;2023-08-17T12:58:09;3.22;;;1.20;;
58214;SDS011;44011;52.218;1.480;2023-08-17T13:00:35;2.83;;;0.90;;
58214;SDS011;44011;52.218;1.480;2023-08-17T13:03:00;3.13;;;1.15;;
58214;SDS011;44011;52.218;1.480;2023-08-17T13:05:25;1.55;;;1.00;;
58214;SDS011;44011;52.218;1.480;2023-08-17T13:07:51;2.05;;;1.00;;
58214;SDS011;44011;52.218;1.480;2023-08-17T13:10:16;2.90;;;0.90;;
58214;SDS011;44011;52.218;1.480;2023-08-17T13:12:41;3.13;;;1.10;;
58214;SDS011;44011;52.218;1.480;2023-08-17T13:15:06;6.23;;;1.03;;
58214;SDS011;44011;52.218;1.480;2023-08-17T13:17:32;4.25;;;1.30;;
58214;SDS011;44011;52.218;1.480;2023-08-17T13:19:57;2.77;;;1.10;;
58214;SDS011;44011;52.218;1.480;2023-08-17T13:22:22;1.43;;;0.90;;
58214;SDS011;44011;52.218;1.480;2023-08-17T13:24:47;1.63;;;1.13;;
58214;SDS011;44011;52.218;1.480;2023-08-17T13:27:13;1.97;;;1.20;;
58214;SDS011;44011;52.218;1.480;2023-08-17T13:29:38;3.37;;;1.33;;
58214;SDS011;44011;52.218;1.480;2023-08-17T13:32:04;1.65;;;1.02;;
58214;SDS011;44011;52.218;1.480;2023-08-17T13:34:29;3.70;;;0.80;;
58214;SDS011;44011;52.218;1.480;2023-08-17T13:36:55;2.13;;;0.90;;
58214;SDS011;44011;52.218;1.480;2023-08-17T13:39:20;2.83;;;0.90;;
58214;SDS011;44011;52.218;1.480;2023-08-17T13:41:45;7.93;;;1.47;;
58214;SDS011;44011;52.218;1.480;2023-08-17T13:44:10;9.97;;;1.30;;
58214;SDS011;44011;52.218;1.480;2023-08-17T13:46:35;1.83;;;1.17;;
58214;SDS011;44011;52.218;1.480;2023-08-17T13:49:01;3.70;;;0.93;;
58214;SDS011;44011;52.218;1.480;2023-08-17T13:51:26;4.75;;;1.02;;
58214;SDS011;44011;52.218;1.480;2023-08-17T13:53:52;4.73;;;1.10;;
58214;SDS011;44011;52.218;1.480;2023-08-17T13:56:17;5.10;;;0.93;;
58214;SDS011;44011;52.218;1.480;2023-08-17T13:58:42;2.92;;;1.67;;
58214;SDS011;44011;52.218;1.480;2023-08-17T14:01:07;3.33;;;1.23;;
58214;SDS011;44011;52.218;1.480;2023-08-17T14:03:32;2.60;;;0.87;;
58214;SDS011;44011;52.218;1.480;2023-08-17T14:05:58;2.42;;;1.20;;
58214;SDS011;44011;52.218;1.480;2023-08-17T14:08:23;3.27;;;1.10;;
58214;SDS011;44011;52.218;1.480;2023-08-17T14:10:48;5.33;;;1.00;;
58214;SDS011;44011;52.218;1.480;2023-08-17T14:13:13;1.90;;;0.97;;
58214;SDS011;44011;52.218;1.480;2023-08-17T14:15:38;3.08;;;0.85;;
58214;SDS011;44011;52.218;1.480;2023-08-17T14:18:04;3.28;;;1.00;;
58214;SDS011;44011;52.218;1.480;2023-08-17T14:20:29;4.15;;;0.95;;
58214;SDS011;44011;52.218;1.480;2023-08-17T14:22:54;2.57;;;1.10;;
58214;SDS011;44011;52.218;1.480;2023-08-17T14:25:20;1.43;;;0.90;;
58214;SDS011;44011;52.218;1.480;2023-08-17T14:27:45;3.47;;;0.90;;
58214;SDS011;44011;52.218;1.480;2023-08-17T14:30:11;3.00;;;1.30;;
58214;SDS011;44011;52.218;1.480;2023-08-17T14:32:36;4.97;;;0.90;;
58214;SDS011;44011;52.218;1.480;2023-08-17T14:35:01;7.53;;;1.13;;
58214;SDS011;44011;52.218;1.480;2023-08-17T14:37:26;5.57;;;1.75;;
58214;SDS011;44011;52.218;1.480;2023-08-17T14:39:52;4.47;;;1.07;;
58214;SDS011;44011;52.218;1.480;2023-08-17T14:42:17;1.00;;;0.80;;